createdAt,value
2018-03-03T00:01:03.383Z,63.59
2018-03-03T00:03:32.061Z,64.22
2018-03-03T00:06:00.736Z,64.18
2018-03-03T00:08:29.614Z,64.86
2018-03-03T00:10:58.242Z,64.67
2018-03-03T00:13:29.834Z,64.78
2018-03-03T00:15:59.796Z,65.17
2018-03-03T00:18:31.311Z,65.29
2018-03-03T00:21:01.497Z,65.34
2018-03-03T00:23:31.989Z,64.94
2018-03-03T00:26:01.938Z,64.83
2018-03-03T00:28:32.465Z,65.42
2018-03-03T00:31:04.347Z,64.90
2018-03-03T00:33:33.685Z,65.60
2018-03-03T00:36:04.035Z,64.78
2018-03-03T00:38:34.088Z,65.14
2018-03-03T00:41:09.576Z,65.37
2018-03-03T00:43:38.600Z,64.79
2018-03-03T00:46:08.395Z,64.37
2018-03-03T00:48:37.676Z,65.57
2018-03-03T00:51:07.798Z,65.50
2018-03-03T00:53:36.987Z,65.48
2018-03-03T00:56:05.622Z,65.16
2018-03-03T00:58:34.182Z,65.48
2018-03-03T01:01:02.877Z,65.64
2018-03-03T01:03:31.317Z,65.60
2018-03-03T01:06:00.068Z,66.13
2018-03-03T01:08:28.565Z,66.08
2018-03-03T01:10:58.102Z,66.24
2018-03-03T01:13:27.498Z,66.35
2018-03-03T01:15:56.377Z,66.36
2018-03-03T01:18:25.069Z,66.08
2018-03-03T01:20:53.899Z,66.04
2018-03-03T01:23:22.505Z,66.45
2018-03-03T01:25:51.438Z,66.40
2018-03-03T01:28:20.959Z,66.32
2018-03-03T01:30:49.830Z,66.06
2018-03-03T01:33:19.271Z,66.25
2018-03-03T01:35:48.005Z,66.48
2018-03-03T01:38:16.812Z,66.59
2018-03-03T01:40:45.323Z,66.45
2018-03-03T01:43:14.023Z,66.01
2018-03-03T01:45:43.144Z,65.99
2018-03-03T01:48:11.794Z,66.31
2018-03-03T01:50:40.282Z,66.94
2018-03-03T01:53:09.033Z,66.61
2018-03-03T01:55:37.662Z,66.61
2018-03-03T01:58:06.349Z,66.70
2018-03-03T02:00:34.827Z,66.83
2018-03-03T02:03:03.487Z,67.38
2018-03-03T02:05:32.181Z,66.95
2018-03-03T02:08:00.741Z,66.18
2018-03-03T02:10:29.457Z,66.37
2018-03-03T02:12:58.883Z,66.61
2018-03-03T02:15:27.367Z,67.19
2018-03-03T02:17:55.857Z,66.70
2018-03-03T02:20:24.498Z,67.09
2018-03-03T02:22:53.075Z,66.99
2018-03-03T02:25:21.698Z,67.03
2018-03-03T02:27:50.153Z,67.10
2018-03-03T02:30:18.679Z,67.22
2018-03-03T02:32:47.148Z,67.64
2018-03-03T02:35:15.604Z,67.82
2018-03-03T02:37:44.267Z,67.36
2018-03-03T02:40:12.837Z,67.39
2018-03-03T02:42:41.431Z,67.74
2018-03-03T02:45:09.910Z,67.30
2018-03-03T02:47:38.360Z,67.88
2018-03-03T02:50:06.920Z,67.80
2018-03-03T02:52:35.406Z,67.66
2018-03-03T02:55:04.105Z,67.59
2018-03-03T02:57:32.517Z,67.25
2018-03-03T03:00:01.190Z,67.92
2018-03-03T03:02:29.675Z,67.61
2018-03-03T03:04:58.159Z,67.80
2018-03-03T03:07:26.894Z,68.10
2018-03-03T03:09:55.617Z,67.46
2018-03-03T03:12:24.228Z,67.92
2018-03-03T03:14:52.696Z,67.76
2018-03-03T03:17:21.187Z,68.23
2018-03-03T03:19:49.631Z,68.01
2018-03-03T03:22:18.125Z,68.01
2018-03-03T03:24:46.847Z,68.24
2018-03-03T03:27:15.572Z,67.99
2018-03-03T03:29:44.281Z,67.87
2018-03-03T03:32:13.147Z,68.12
2018-03-03T03:34:41.699Z,68.05
2018-03-03T03:37:10.170Z,68.32
2018-03-03T03:39:38.814Z,68.27
2018-03-03T03:42:07.459Z,68.61
2018-03-03T03:44:36.103Z,68.30
2018-03-03T03:47:05.003Z,68.39
2018-03-03T03:49:33.698Z,68.67
2018-03-03T03:52:02.593Z,68.72
2018-03-03T03:54:31.430Z,68.44
2018-03-03T03:56:59.962Z,69.21
2018-03-03T03:59:28.450Z,69.08
2018-03-03T04:01:57.132Z,68.36
2018-03-03T04:04:25.785Z,69.47
2018-03-03T04:06:54.515Z,69.69
2018-03-03T04:09:23.056Z,69.83
2018-03-03T04:11:51.802Z,69.65
2018-03-03T04:14:20.303Z,69.87
2018-03-03T04:16:48.767Z,70.04
2018-03-03T04:19:17.347Z,70.00
2018-03-03T04:21:45.844Z,70.31
2018-03-03T04:24:14.544Z,69.94
2018-03-03T04:26:43.218Z,69.66
2018-03-03T04:29:12.072Z,69.59
2018-03-03T04:31:40.615Z,70.06
2018-03-03T04:34:09.056Z,70.18
2018-03-03T04:36:38.003Z,70.20
2018-03-03T04:39:06.519Z,70.79
2018-03-03T04:41:35.147Z,70.70
2018-03-03T04:44:03.696Z,70.71
2018-03-03T04:46:32.685Z,70.45
2018-03-03T04:49:01.358Z,70.98
2018-03-03T04:51:29.882Z,70.49
2018-03-03T04:53:58.582Z,70.96
2018-03-03T04:56:27.184Z,70.74
2018-03-03T04:58:56.066Z,70.68
2018-03-03T05:04:20.336Z,71.31
2018-03-03T05:06:49.647Z,70.70
2018-03-03T05:09:18.455Z,70.82
2018-03-03T05:11:47.613Z,71.23
2018-03-03T05:14:16.721Z,71.24
2018-03-03T05:16:45.717Z,71.21
2018-03-03T05:19:15.639Z,71.23
2018-03-03T05:21:47.473Z,71.37
2018-03-03T05:24:16.693Z,71.21
2018-03-03T05:26:46.027Z,71.24
2018-03-03T05:29:15.634Z,71.35
2018-03-03T05:31:44.817Z,71.23
2018-03-03T05:34:14.616Z,71.71
2018-03-03T05:36:43.905Z,71.73
2018-03-03T05:39:14.318Z,72.07
2018-03-03T05:41:43.230Z,72.10
2018-03-03T05:44:12.591Z,72.51
2018-03-03T05:46:42.336Z,72.28
2018-03-03T05:49:11.377Z,72.26
2018-03-03T05:51:40.433Z,72.49
2018-03-03T05:54:09.162Z,72.25
2018-03-03T05:56:38.287Z,72.44
2018-03-03T05:59:07.511Z,72.26
2018-03-03T06:01:36.338Z,72.22
2018-03-03T06:04:05.140Z,72.68
2018-03-03T06:06:34.478Z,72.65
2018-03-03T06:09:03.570Z,72.35
2018-03-03T06:11:32.492Z,72.50
2018-03-03T06:14:01.623Z,72.40
2018-03-03T06:16:30.397Z,72.00
2018-03-03T06:18:59.241Z,72.10
2018-03-03T06:21:28.011Z,72.44
2018-03-03T06:23:56.833Z,72.40
2018-03-03T06:26:25.535Z,72.51
2018-03-03T06:28:55.263Z,71.90
2018-03-03T06:31:24.196Z,71.94
2018-03-03T06:33:53.221Z,72.11
2018-03-03T06:36:22.188Z,70.97
2018-03-03T06:38:51.036Z,71.06
2018-03-03T06:41:19.947Z,70.71
2018-03-03T06:43:48.854Z,71.05
2018-03-03T06:46:17.820Z,71.08
2018-03-03T06:48:46.720Z,70.60
2018-03-03T06:51:16.070Z,70.90
2018-03-03T06:53:45.043Z,70.36
2018-03-03T06:56:14.130Z,70.41
2018-03-03T06:58:43.216Z,70.35
2018-03-03T07:01:12.321Z,70.64
2018-03-03T07:03:41.199Z,70.04
2018-03-03T07:06:10.127Z,70.25
2018-03-03T07:08:39.182Z,69.49
2018-03-03T07:11:08.286Z,69.34
2018-03-03T07:13:37.227Z,69.57
2018-03-03T07:16:06.471Z,69.21
2018-03-03T07:18:35.237Z,68.80
2018-03-03T07:21:04.107Z,68.60
2018-03-03T07:23:32.834Z,68.83
2018-03-03T07:26:01.986Z,68.70
2018-03-03T07:28:31.137Z,67.53
2018-03-03T07:31:00.029Z,67.53
2018-03-03T07:33:28.913Z,66.66
2018-03-03T07:35:57.814Z,67.18
2018-03-03T07:38:26.720Z,66.44
2018-03-03T07:40:55.585Z,65.84
2018-03-03T07:43:24.557Z,65.60
2018-03-03T07:45:53.774Z,66.32
2018-03-03T07:48:22.866Z,65.63
2018-03-03T07:50:51.618Z,64.68
2018-03-03T07:53:20.678Z,64.56
2018-03-03T07:55:49.572Z,63.92
2018-03-03T07:58:27.462Z,64.58
2018-03-03T08:00:56.277Z,64.72
2018-03-03T08:03:25.421Z,63.50
2018-03-03T08:05:54.581Z,62.61
2018-03-03T08:08:23.492Z,62.67
2018-03-03T08:10:52.308Z,62.45
2018-03-03T08:13:20.962Z,62.77
2018-03-03T08:15:50.294Z,61.67
2018-03-03T08:18:19.117Z,59.90
2018-03-03T08:20:48.281Z,59.79
2018-03-03T08:23:17.942Z,60.13
2018-03-03T08:25:46.876Z,59.73
2018-03-03T08:28:15.767Z,58.88
2018-03-03T08:30:45.488Z,58.90
2018-03-03T08:33:14.245Z,58.76
2018-03-03T08:35:43.054Z,58.30
2018-03-03T08:38:11.948Z,59.34
2018-03-03T08:40:40.870Z,58.20
2018-03-03T08:43:10.020Z,57.53
2018-03-03T08:45:39.227Z,57.54
2018-03-03T08:48:08.114Z,57.42
2018-03-03T08:50:37.204Z,56.26
2018-03-03T08:53:07.122Z,55.10
2018-03-03T08:55:36.168Z,55.43
2018-03-03T08:58:07.117Z,55.68
2018-03-03T09:00:36.865Z,55.52
2018-03-03T09:03:08.511Z,53.68
2018-03-03T09:05:40.274Z,53.78
2018-03-03T09:08:09.165Z,53.98
2018-03-03T09:10:39.562Z,53.85
2018-03-03T09:13:10.173Z,53.11
2018-03-03T09:15:39.211Z,52.75
2018-03-03T09:18:08.012Z,53.05
2018-03-03T09:20:37.330Z,53.23
2018-03-03T09:23:06.804Z,52.27
2018-03-03T09:25:35.662Z,51.28
2018-03-03T09:28:04.593Z,51.90
2018-03-03T09:30:33.898Z,50.79
2018-03-03T09:33:03.082Z,51.25
2018-03-03T09:35:31.956Z,50.56
2018-03-03T09:38:00.980Z,50.15
2018-03-03T09:40:30.463Z,50.08
2018-03-03T09:42:59.725Z,50.13
2018-03-03T09:45:29.526Z,50.37
2018-03-03T09:47:58.981Z,50.06
2018-03-03T09:50:28.299Z,49.67
2018-03-03T09:52:57.712Z,49.44
2018-03-03T09:55:26.906Z,48.68
2018-03-03T09:57:56.827Z,48.96
2018-03-03T10:00:25.786Z,48.81
2018-03-03T10:02:54.537Z,48.25
2018-03-03T10:05:23.686Z,48.11
2018-03-03T10:07:52.835Z,47.59
2018-03-03T10:10:21.888Z,47.45
2018-03-03T10:12:51.184Z,47.20
2018-03-03T10:15:20.473Z,47.15
2018-03-03T10:17:49.374Z,45.79
2018-03-03T10:20:18.675Z,46.24
2018-03-03T10:22:48.579Z,45.74
2018-03-03T10:25:17.861Z,44.56
2018-03-03T10:27:46.983Z,44.59
2018-03-03T10:30:16.071Z,44.58
2018-03-03T10:32:44.999Z,45.02
2018-03-03T10:35:14.327Z,44.36
2018-03-03T10:37:44.186Z,43.42
2018-03-03T10:40:13.696Z,43.40
2018-03-03T10:42:42.601Z,43.83
2018-03-03T10:45:12.084Z,43.34
2018-03-03T10:47:41.227Z,42.06
2018-03-03T10:50:10.719Z,42.16
2018-03-03T10:52:39.576Z,41.61
2018-03-03T10:55:08.831Z,39.97
2018-03-03T10:57:37.664Z,40.01
2018-03-03T11:00:07.365Z,41.36
2018-03-03T11:02:37.393Z,40.09
2018-03-03T11:05:06.334Z,40.96
2018-03-03T11:07:35.228Z,39.27
2018-03-03T11:10:04.697Z,39.26
2018-03-03T11:12:35.954Z,39.13
2018-03-03T11:15:05.545Z,38.87
2018-03-03T11:17:35.240Z,39.49
2018-03-03T11:20:05.839Z,41.04
2018-03-03T11:22:34.865Z,39.12
2018-03-03T11:25:04.981Z,37.88
2018-03-03T11:27:34.572Z,37.52
2018-03-03T11:30:03.315Z,37.71
2018-03-03T11:32:32.882Z,36.23
2018-03-03T11:35:01.767Z,32.79
2018-03-03T11:37:30.971Z,31.63
2018-03-03T11:39:59.969Z,33.51
2018-03-03T11:42:29.876Z,31.85
2018-03-03T11:44:59.097Z,30.37
2018-03-03T11:47:28.073Z,31.40
2018-03-03T11:49:56.956Z,33.38
2018-03-03T11:52:26.246Z,32.36
2018-03-03T11:54:55.372Z,33.46
2018-03-03T11:57:24.440Z,36.15
2018-03-03T11:59:53.288Z,33.36
2018-03-03T12:02:22.393Z,33.77
2018-03-03T12:04:51.800Z,36.06
2018-03-03T12:07:20.819Z,36.77
2018-03-03T12:09:49.920Z,31.37
2018-03-03T12:12:18.802Z,31.71
2018-03-03T12:14:47.910Z,31.78
2018-03-03T12:17:17.642Z,30.55
2018-03-03T12:19:47.318Z,32.06
2018-03-03T12:22:16.449Z,30.31
2018-03-03T12:24:45.504Z,31.15
2018-03-03T12:27:15.223Z,32.84
2018-03-03T12:29:44.116Z,33.59
2018-03-03T12:32:12.983Z,37.24
2018-03-03T12:34:41.908Z,37.28
2018-03-03T12:37:12.389Z,36.75
2018-03-03T12:39:41.273Z,36.60
2018-03-03T12:42:10.416Z,34.47
2018-03-03T12:44:39.081Z,32.10
2018-03-03T12:47:08.398Z,33.82
2018-03-03T12:49:38.288Z,31.21
2018-03-03T12:52:07.822Z,34.40
2018-03-03T12:54:38.817Z,36.41
2018-03-03T12:57:08.914Z,38.00
2018-03-03T12:59:37.759Z,36.58
2018-03-03T13:02:08.023Z,33.21
2018-03-03T13:04:37.394Z,33.86
2018-03-03T13:07:06.468Z,33.15
2018-03-03T13:09:39.891Z,35.31
2018-03-03T13:12:08.768Z,34.79
2018-03-03T13:14:38.272Z,34.74
2018-03-03T13:17:07.678Z,35.47
2018-03-03T13:19:37.981Z,32.73
2018-03-03T13:22:06.997Z,30.73
2018-03-03T13:24:36.381Z,28.43
2018-03-03T13:27:05.244Z,28.80
2018-03-03T13:29:34.277Z,30.56
2018-03-03T13:32:03.985Z,29.78
2018-03-03T13:34:32.766Z,25.07
2018-03-03T13:37:02.180Z,27.57
2018-03-03T13:39:31.645Z,26.48
2018-03-03T13:42:00.819Z,27.92
2018-03-03T13:44:29.724Z,26.96
2018-03-03T13:46:58.758Z,28.50
2018-03-03T13:49:27.658Z,28.43
2018-03-03T13:51:56.560Z,28.56
2018-03-03T13:54:25.800Z,30.30
2018-03-03T13:56:54.705Z,30.78
2018-03-03T13:59:25.114Z,35.93
2018-03-03T14:01:54.163Z,36.10
2018-03-03T14:04:23.667Z,36.77
2018-03-03T14:06:52.901Z,37.36
2018-03-03T14:09:22.265Z,38.77
2018-03-03T14:11:51.420Z,39.09
2018-03-03T14:14:20.296Z,38.58
2018-03-03T14:16:49.403Z,39.92
2018-03-03T14:19:18.894Z,39.26
2018-03-03T14:21:47.940Z,40.46
2018-03-03T14:24:17.023Z,41.26
2018-03-03T14:26:47.161Z,41.12
2018-03-03T14:29:16.855Z,40.87
2018-03-03T14:31:46.182Z,40.91
2018-03-03T14:34:14.960Z,41.56
2018-03-03T14:36:49.593Z,41.12
2018-03-03T14:39:24.303Z,41.60
2018-03-03T14:41:53.440Z,42.13
2018-03-03T14:44:22.489Z,41.52
2018-03-03T14:46:52.405Z,42.73
2018-03-03T14:49:22.732Z,43.32
2018-03-03T14:51:52.039Z,42.83
2018-03-03T14:54:20.714Z,42.51
2018-03-03T14:56:49.998Z,42.53
2018-03-03T14:59:19.113Z,43.99
2018-03-03T15:01:48.431Z,43.58
2018-03-03T15:04:17.310Z,43.89
2018-03-03T15:06:46.196Z,43.61
2018-03-03T15:09:15.091Z,44.01
2018-03-03T15:11:44.040Z,43.58
2018-03-03T15:14:13.503Z,43.53
2018-03-03T15:16:42.479Z,44.41
2018-03-03T15:19:11.612Z,44.03
2018-03-03T15:21:41.006Z,43.38
2018-03-03T15:24:09.792Z,44.72
2018-03-03T15:26:38.708Z,43.82
2018-03-03T15:29:08.448Z,44.05
2018-03-03T15:31:37.390Z,44.48
2018-03-03T15:34:06.247Z,44.10
2018-03-03T15:36:35.069Z,44.54
2018-03-03T15:39:04.335Z,44.40
2018-03-03T15:41:36.811Z,44.78
2018-03-03T15:44:05.702Z,44.74
2018-03-03T15:46:35.411Z,45.08
2018-03-03T15:49:04.509Z,44.77
2018-03-03T15:51:34.422Z,44.97
2018-03-03T15:54:03.657Z,45.55
2018-03-03T15:56:32.964Z,45.15
2018-03-03T15:59:02.086Z,45.61
2018-03-03T16:01:31.026Z,45.29
2018-03-03T16:04:00.090Z,45.73
2018-03-03T16:06:28.910Z,45.92
2018-03-03T16:08:58.057Z,46.00
2018-03-03T16:11:27.534Z,45.98
2018-03-03T16:13:56.886Z,46.34
2018-03-03T16:16:25.986Z,46.73
2018-03-03T16:18:55.080Z,46.93
2018-03-03T16:21:24.586Z,47.16
2018-03-03T16:23:53.723Z,47.01
2018-03-03T16:26:22.570Z,47.26
2018-03-03T16:28:51.862Z,47.61
2018-03-03T16:31:21.034Z,47.64
2018-03-03T16:33:50.266Z,47.90
2018-03-03T16:36:19.373Z,48.04
2018-03-03T16:38:48.868Z,47.80
2018-03-03T16:41:18.794Z,48.51
2018-03-03T16:43:47.664Z,48.56
2018-03-03T16:46:16.767Z,48.43
2018-03-03T16:48:45.446Z,48.96
2018-03-03T16:51:14.654Z,49.02
2018-03-03T16:53:43.658Z,48.96
2018-03-03T16:56:12.688Z,48.95
2018-03-03T16:58:42.172Z,49.12
2018-03-03T17:01:11.115Z,49.55
2018-03-03T17:03:40.974Z,49.59
2018-03-03T17:06:10.850Z,49.78
2018-03-03T17:08:42.003Z,49.73
2018-03-03T17:11:12.527Z,49.95
2018-03-03T17:13:41.525Z,50.07
2018-03-03T17:16:10.729Z,50.23
2018-03-03T17:18:39.875Z,50.35
2018-03-03T17:21:08.730Z,50.37
2018-03-03T17:23:38.002Z,50.63
2018-03-03T17:26:06.889Z,51.03
2018-03-03T17:28:36.197Z,51.16
2018-03-03T17:31:05.666Z,51.29
2018-03-03T17:33:34.590Z,51.34
2018-03-03T17:36:03.893Z,51.57
2018-03-03T17:38:33.798Z,51.67
2018-03-03T17:41:03.516Z,51.70
2018-03-03T17:43:32.611Z,52.11
2018-03-03T17:46:01.898Z,51.71
2018-03-03T17:48:31.204Z,51.75
2018-03-03T17:51:00.521Z,51.86
2018-03-03T17:53:29.410Z,51.87
2018-03-03T17:55:58.657Z,52.24
2018-03-03T17:58:27.924Z,52.38
2018-03-03T18:00:57.535Z,52.49
2018-03-03T18:03:27.203Z,52.81
2018-03-03T18:05:56.313Z,52.73
2018-03-03T18:08:25.612Z,53.19
2018-03-03T18:10:56.207Z,53.30
2018-03-03T18:13:32.213Z,53.03
2018-03-03T18:16:01.403Z,53.32
2018-03-03T18:18:31.244Z,53.19
2018-03-03T18:21:00.202Z,53.36
2018-03-03T18:23:30.619Z,53.75
2018-03-03T18:26:00.493Z,53.71
2018-03-03T18:28:36.487Z,54.14
2018-03-03T18:31:05.568Z,53.98
2018-03-03T18:33:35.048Z,53.86
2018-03-03T18:36:04.046Z,54.07
2018-03-03T18:38:35.416Z,54.13
2018-03-03T18:41:04.792Z,54.27
2018-03-03T18:43:34.523Z,54.12
2018-03-03T18:46:04.513Z,54.22
2018-03-03T18:48:33.632Z,54.40
2018-03-03T18:51:02.759Z,54.73
2018-03-03T18:53:32.788Z,54.36
2018-03-03T18:56:02.958Z,54.34
2018-03-03T18:58:38.133Z,54.10
2018-03-03T19:01:08.501Z,54.40
2018-03-03T19:03:40.043Z,54.38
2018-03-03T19:06:09.059Z,54.74
2018-03-03T19:08:45.063Z,54.44
2018-03-03T19:11:15.184Z,54.58
2018-03-03T19:13:43.873Z,54.58
2018-03-03T19:16:13.048Z,54.54
2018-03-03T19:18:41.855Z,54.77
2018-03-03T19:21:10.747Z,54.89
2018-03-03T19:23:39.794Z,54.93
2018-03-03T19:26:08.732Z,54.98
2018-03-03T19:28:37.602Z,54.94
2018-03-03T19:31:06.637Z,55.17
2018-03-03T19:33:36.126Z,55.12
2018-03-03T19:36:05.120Z,55.24
2018-03-03T19:38:34.299Z,55.34
2018-03-03T19:41:03.452Z,55.48
2018-03-03T19:43:32.705Z,55.50
2018-03-03T19:46:01.595Z,55.55
2018-03-03T19:48:30.511Z,55.67
2018-03-03T19:50:59.379Z,56.04
2018-03-03T19:53:29.114Z,55.70
2018-03-03T19:55:58.148Z,55.80
2018-03-03T19:58:27.392Z,55.97
2018-03-03T20:00:56.362Z,56.11
2018-03-03T20:03:27.524Z,56.09
2018-03-03T20:05:56.843Z,56.00
2018-03-03T20:08:25.598Z,56.03
2018-03-03T20:10:54.389Z,55.92
2018-03-03T20:13:23.283Z,56.21
2018-03-03T20:15:52.594Z,55.92
2018-03-03T20:18:21.636Z,55.94
2018-03-03T20:20:50.568Z,56.39
2018-03-03T20:23:19.334Z,55.98
2018-03-03T20:25:48.303Z,56.32
2018-03-03T20:28:17.620Z,56.00
2018-03-03T20:30:47.567Z,56.16
2018-03-03T20:33:18.136Z,56.10
2018-03-03T20:35:46.982Z,55.98
2018-03-03T20:38:15.746Z,56.39
2018-03-03T20:40:45.381Z,56.50
2018-03-03T20:43:14.462Z,56.06
2018-03-03T20:45:45.157Z,56.24
2018-03-03T20:48:14.527Z,56.36
2018-03-03T20:50:43.606Z,56.40
2018-03-03T20:53:12.616Z,56.37
2018-03-03T20:55:42.414Z,56.38
2018-03-03T20:58:12.300Z,56.16
2018-03-03T21:00:42.099Z,56.22
2018-03-03T21:03:11.340Z,56.05
2018-03-03T21:05:40.853Z,56.27
2018-03-03T21:08:10.002Z,56.29
2018-03-03T21:10:39.263Z,56.10
2018-03-03T21:13:08.488Z,56.29
2018-03-03T21:15:38.640Z,56.41
2018-03-03T21:18:08.071Z,56.41
2018-03-03T21:20:38.105Z,56.01
2018-03-03T21:23:07.258Z,55.96
2018-03-03T21:25:36.152Z,56.35
2018-03-03T21:28:04.994Z,56.47
2018-03-03T21:30:34.145Z,56.68
2018-03-03T21:33:04.263Z,56.92
2018-03-03T21:35:33.225Z,57.08
2018-03-03T21:38:01.979Z,57.18
2018-03-03T21:40:31.118Z,57.14
2018-03-03T21:43:00.438Z,57.22
2018-03-03T21:45:29.595Z,57.54
2018-03-03T21:47:58.408Z,57.73
2018-03-03T21:50:27.511Z,57.84
2018-03-03T21:52:56.614Z,57.70
2018-03-03T21:55:25.446Z,57.97
2018-03-03T21:57:54.387Z,57.72
2018-03-03T22:00:23.234Z,57.93
2018-03-03T22:02:52.222Z,58.43
2018-03-03T22:05:21.026Z,58.33
2018-03-03T22:07:50.379Z,58.06
2018-03-03T22:10:19.456Z,58.42
2018-03-03T22:12:48.763Z,58.73
2018-03-03T22:15:17.583Z,58.70
2018-03-03T22:17:46.746Z,58.72
2018-03-03T22:20:15.714Z,58.83
2018-03-03T22:22:44.524Z,58.98
2018-03-03T22:25:13.895Z,59.00
2018-03-03T22:27:42.710Z,58.74
2018-03-03T22:30:11.519Z,59.17
2018-03-03T22:32:40.402Z,59.11
2018-03-03T22:35:09.399Z,59.39
2018-03-03T22:37:38.323Z,59.43
2018-03-03T22:40:07.584Z,59.45
2018-03-03T22:42:36.265Z,59.07
2018-03-03T22:45:05.363Z,59.50
2018-03-03T22:47:34.445Z,59.51
2018-03-03T22:50:03.594Z,59.51
2018-03-03T22:52:33.054Z,59.73
2018-03-03T22:55:02.357Z,59.20
2018-03-03T22:57:31.222Z,59.45
2018-03-03T23:00:00.186Z,59.18
2018-03-03T23:02:29.225Z,58.92
2018-03-03T23:04:58.042Z,59.85
2018-03-03T23:07:27.422Z,60.05
2018-03-03T23:09:56.367Z,60.16
2018-03-03T23:12:25.589Z,60.14
2018-03-03T23:14:54.274Z,59.52
2018-03-03T23:17:23.178Z,60.11
2018-03-03T23:19:52.296Z,60.22
2018-03-03T23:22:21.172Z,60.30
2018-03-03T23:24:50.055Z,60.53
2018-03-03T23:27:18.945Z,60.36
2018-03-03T23:29:47.629Z,60.14
2018-03-03T23:32:16.451Z,60.70
2018-03-03T23:34:45.847Z,60.43
2018-03-03T23:37:14.722Z,60.20
2018-03-03T23:39:44.996Z,60.12
2018-03-03T23:42:14.223Z,60.68
2018-03-03T23:44:43.021Z,60.53
2018-03-03T23:47:11.858Z,60.58
2018-03-03T23:49:40.814Z,60.39
2018-03-03T23:52:10.228Z,60.86
2018-03-03T23:54:39.211Z,60.54
2018-03-03T23:57:08.409Z,60.24
2018-03-03T23:59:37.399Z,60.00
